createdAt,value
2022-09-06T00:02:38.129Z,24.40
2022-09-06T00:05:23.649Z,24.40
2022-09-06T00:08:09.101Z,24.40
2022-09-06T00:11:01.060Z,24.30
2022-09-06T00:13:47.436Z,24.30
2022-09-06T00:16:33.087Z,24.30
2022-09-06T00:19:18.715Z,24.20
2022-09-06T00:22:04.313Z,24.30
2022-09-06T00:24:50.014Z,24.20
2022-09-06T00:27:36.232Z,24.20
2022-09-06T00:30:22.046Z,24.20
2022-09-06T00:33:07.721Z,24.20
2022-09-06T00:35:59.663Z,24.10
2022-09-06T00:38:45.808Z,24.10
2022-09-06T00:41:31.803Z,24.10
2022-09-06T00:44:17.605Z,24.10
2022-09-06T00:47:03.928Z,24.00
2022-09-06T00:49:52.664Z,24.00
2022-09-06T00:52:39.269Z,24.00
2022-09-06T00:55:26.258Z,24.00
2022-09-06T00:58:13.009Z,24.00
2022-09-06T01:00:58.499Z,24.00
2022-09-06T01:03:44.232Z,24.00
2022-09-06T01:06:45.164Z,23.90
2022-09-06T01:09:52.517Z,23.90
2022-09-06T01:12:52.951Z,23.80
2022-09-06T01:16:03.029Z,23.80
2022-09-06T01:19:03.088Z,23.80
2022-09-06T01:22:37.961Z,23.70
2022-09-06T01:25:59.965Z,23.70
2022-09-06T01:28:47.029Z,23.60
2022-09-06T01:31:39.329Z,23.60
2022-09-06T01:34:34.465Z,23.60
2022-09-06T01:37:23.133Z,23.60
2022-09-06T01:40:09.087Z,23.60
2022-09-06T01:42:56.694Z,23.50
2022-09-06T01:46:08.728Z,23.50
2022-09-06T01:49:28.975Z,23.50
2022-09-06T01:52:17.265Z,23.60
2022-09-06T01:55:23.027Z,23.50
2022-09-06T01:58:20.397Z,23.50
2022-09-06T02:01:21.469Z,23.50
2022-09-06T02:04:28.139Z,23.50
2022-09-06T02:07:17.199Z,23.50
2022-09-06T02:10:10.917Z,23.50
2022-09-06T02:13:00.859Z,23.40
2022-09-06T02:15:54.037Z,23.30
2022-09-06T02:18:59.421Z,23.30
2022-09-06T02:21:47.358Z,23.30
2022-09-06T02:24:35.311Z,23.30
2022-09-06T02:27:21.111Z,23.30
2022-09-06T02:30:07.361Z,23.20
2022-09-06T02:33:10.303Z,23.30
2022-09-06T02:35:56.948Z,23.30
2022-09-06T02:38:44.017Z,23.20
2022-09-06T02:41:31.108Z,23.20
2022-09-06T02:44:16.601Z,23.10
2022-09-06T02:47:03.372Z,23.10
2022-09-06T02:49:49.235Z,23.10
2022-09-06T02:52:34.776Z,23.10
2022-09-06T02:55:20.143Z,23.10
2022-09-06T02:58:07.452Z,23.10
2022-09-06T03:00:54.064Z,23.00
2022-09-06T03:03:39.534Z,23.10
2022-09-06T03:06:25.445Z,23.10
2022-09-06T03:09:11.087Z,23.10
2022-09-06T03:11:56.465Z,23.10
2022-09-06T03:14:41.949Z,23.00
2022-09-06T03:17:27.399Z,23.00
2022-09-06T03:20:13.454Z,23.00
2022-09-06T03:22:58.882Z,23.00
2022-09-06T03:25:44.699Z,23.00
2022-09-06T03:28:30.262Z,23.00
2022-09-06T03:31:16.022Z,23.00
2022-09-06T03:34:01.932Z,23.00
2022-09-06T03:36:47.293Z,23.10
2022-09-06T03:39:33.916Z,23.20
2022-09-06T03:42:19.665Z,23.20
2022-09-06T03:45:05.871Z,23.10
2022-09-06T03:47:51.272Z,23.10
2022-09-06T03:50:36.815Z,23.10
2022-09-06T03:53:23.406Z,23.00
2022-09-06T03:56:09.326Z,23.00
2022-09-06T03:58:54.865Z,23.00
2022-09-06T04:01:40.352Z,22.90
2022-09-06T04:04:25.904Z,22.90
2022-09-06T04:07:11.383Z,22.90
2022-09-06T04:09:57.028Z,22.90
2022-09-06T04:12:42.497Z,22.90
2022-09-06T04:15:28.165Z,22.90
2022-09-06T04:18:14.334Z,22.80
2022-09-06T04:21:00.168Z,22.80
2022-09-06T04:23:45.709Z,22.80
2022-09-06T04:26:31.093Z,22.80
2022-09-06T04:29:16.577Z,22.70
2022-09-06T04:32:02.399Z,22.70
2022-09-06T04:34:47.959Z,22.70
2022-09-06T04:37:33.830Z,22.60
2022-09-06T04:40:19.501Z,22.60
2022-09-06T04:43:05.029Z,22.60
2022-09-06T04:45:50.850Z,22.60
2022-09-06T04:48:36.224Z,22.70
2022-09-06T04:51:22.523Z,22.60
2022-09-06T04:54:08.380Z,22.50
2022-09-06T04:56:53.867Z,22.60
2022-09-06T04:59:39.547Z,22.70
2022-09-06T05:02:25.018Z,22.70
2022-09-06T05:05:11.327Z,22.80
2022-09-06T05:07:57.420Z,22.70
2022-09-06T05:10:42.978Z,22.70
2022-09-06T05:13:28.508Z,22.70
2022-09-06T05:16:14.160Z,22.70
2022-09-06T05:18:59.558Z,22.70
2022-09-06T05:21:45.449Z,22.60
2022-09-06T05:24:31.097Z,22.60
2022-09-06T05:27:16.853Z,22.60
2022-09-06T05:30:04.155Z,22.70
2022-09-06T05:32:50.985Z,22.70
2022-09-06T05:35:36.567Z,22.60
2022-09-06T05:38:21.995Z,22.60
2022-09-06T05:41:07.468Z,22.60
2022-09-06T05:43:53.044Z,22.60
2022-09-06T05:46:46.172Z,22.60
2022-09-06T05:49:32.409Z,22.60
2022-09-06T05:52:19.805Z,22.60
2022-09-06T05:55:06.652Z,22.60
2022-09-06T05:57:52.156Z,22.60
2022-09-06T06:00:37.836Z,22.60
2022-09-06T06:03:23.424Z,22.50
2022-09-06T06:06:08.998Z,22.50
2022-09-06T06:08:54.925Z,22.50
2022-09-06T06:11:41.217Z,22.50
2022-09-06T06:14:27.055Z,22.50
2022-09-06T06:17:12.538Z,22.50
2022-09-06T06:19:58.348Z,22.50
2022-09-06T06:22:43.841Z,22.60
2022-09-06T06:25:29.359Z,22.60
2022-09-06T06:28:15.050Z,22.60
2022-09-06T06:31:00.648Z,22.70
2022-09-06T06:33:46.399Z,22.70
2022-09-06T06:36:34.586Z,22.70
2022-09-06T06:39:20.052Z,22.70
2022-09-06T06:42:05.586Z,22.70
2022-09-06T06:45:08.093Z,22.70
2022-09-06T06:47:53.731Z,22.80
2022-09-06T06:50:39.280Z,22.70
2022-09-06T06:53:25.038Z,22.70
2022-09-06T06:56:32.098Z,22.80
2022-09-06T06:59:17.792Z,22.70
2022-09-06T07:02:03.338Z,22.70
2022-09-06T07:04:49.177Z,22.70
2022-09-06T07:07:36.752Z,22.70
2022-09-06T07:13:18.972Z,22.80
2022-09-06T07:16:16.466Z,22.80
2022-09-06T07:19:02.232Z,22.80
2022-09-06T07:21:47.910Z,22.50
2022-09-06T07:24:33.414Z,22.70
2022-09-06T07:30:24.598Z,22.80
2022-09-06T07:33:10.006Z,22.80
2022-09-06T07:36:06.704Z,22.80
2022-09-06T07:38:52.260Z,22.90
2022-09-06T07:41:38.059Z,23.10
2022-09-06T07:44:23.708Z,23.20
2022-09-06T07:53:29.789Z,23.70
2022-09-06T07:56:17.841Z,23.70
2022-09-06T07:59:03.917Z,23.70
2022-09-06T08:01:50.118Z,23.80
2022-09-06T08:04:35.802Z,23.80
2022-09-06T08:10:22.873Z,23.80
2022-09-06T08:13:08.745Z,23.70
2022-09-06T08:16:02.309Z,23.70
2022-09-06T08:18:53.786Z,23.80
2022-09-06T08:21:39.593Z,23.80
2022-09-06T08:24:25.345Z,23.90
2022-09-06T08:27:11.531Z,24.00
2022-09-06T08:29:57.282Z,24.00
2022-09-06T08:32:43.023Z,24.10
2022-09-06T08:35:28.784Z,24.20
2022-09-06T08:38:14.788Z,24.30
2022-09-06T08:41:29.437Z,24.40
2022-09-06T08:47:26.155Z,24.60
2022-09-06T08:50:12.093Z,24.60
2022-09-06T08:53:16.818Z,24.70
2022-09-06T08:56:34.779Z,24.70
2022-09-06T08:59:20.448Z,24.80
2022-09-06T09:02:13.566Z,24.90
2022-09-06T09:05:04.382Z,24.90
2022-09-06T09:08:00.310Z,25.00
2022-09-06T09:10:54.045Z,25.00
2022-09-06T09:14:03.416Z,25.10
2022-09-06T09:16:53.517Z,25.20
2022-09-06T09:19:41.806Z,25.20
2022-09-06T09:22:28.667Z,25.30
2022-09-06T09:25:20.304Z,25.30
2022-09-06T09:28:12.685Z,25.40
2022-09-06T09:30:58.795Z,25.40
2022-09-06T09:33:44.483Z,25.40
2022-09-06T09:36:30.507Z,25.40
2022-09-06T09:39:16.718Z,25.50
2022-09-06T09:42:03.765Z,25.50
2022-09-06T09:44:49.557Z,25.50
2022-09-06T09:47:35.180Z,25.50
2022-09-06T09:50:31.858Z,25.50
2022-09-06T09:53:22.129Z,25.60
2022-09-06T09:56:08.314Z,25.60
2022-09-06T09:58:56.690Z,25.70
2022-09-06T10:01:42.294Z,25.70
2022-09-06T10:04:44.447Z,25.80
2022-09-06T10:07:33.008Z,25.80
2022-09-06T10:10:34.833Z,25.80
2022-09-06T10:13:32.992Z,25.90
2022-09-06T10:16:43.791Z,25.90
2022-09-06T10:19:35.202Z,25.90
2022-09-06T10:22:56.114Z,26.00
2022-09-06T10:25:58.545Z,26.00
2022-09-06T10:28:45.461Z,26.10
2022-09-06T10:32:04.796Z,26.10
2022-09-06T10:35:19.595Z,26.10
2022-09-06T10:38:43.416Z,26.10
2022-09-06T10:41:51.082Z,26.20
2022-09-06T10:45:02.966Z,26.20
2022-09-06T10:48:14.479Z,26.30
2022-09-06T10:51:36.994Z,26.30
2022-09-06T10:54:24.387Z,26.40
2022-09-06T11:00:48.969Z,26.40
2022-09-06T11:04:01.858Z,26.50
2022-09-06T11:06:54.545Z,26.50
2022-09-06T11:10:03.984Z,26.50
2022-09-06T11:12:52.583Z,26.60
2022-09-06T11:15:49.244Z,26.60
2022-09-06T11:18:57.764Z,26.70
2022-09-06T11:22:13.419Z,26.70
2022-09-06T11:25:16.760Z,26.80
2022-09-06T11:28:08.497Z,26.80
2022-09-06T11:30:57.644Z,26.80
2022-09-06T11:33:43.649Z,26.90
2022-09-06T11:36:59.415Z,26.90
2022-09-06T11:42:50.535Z,26.90
2022-09-06T11:45:43.409Z,26.90
2022-09-06T11:49:06.945Z,27.00
2022-09-06T11:51:52.939Z,27.00
2022-09-06T11:54:46.745Z,27.10
2022-09-06T11:57:32.841Z,27.10
2022-09-06T12:00:23.888Z,27.20
2022-09-06T12:06:41.830Z,27.30
2022-09-06T12:09:36.427Z,27.30
2022-09-06T12:12:41.801Z,27.30
2022-09-06T12:15:30.992Z,27.30
2022-09-06T12:18:55.955Z,27.40
2022-09-06T12:21:43.154Z,27.40
2022-09-06T12:24:35.200Z,27.40
2022-09-06T12:27:24.454Z,27.40
2022-09-06T12:30:12.806Z,27.40
2022-09-06T12:33:00.271Z,27.40
2022-09-06T12:36:03.379Z,27.40
2022-09-06T12:39:03.140Z,27.50
2022-09-06T12:41:57.110Z,27.50
2022-09-06T12:44:49.196Z,27.60
2022-09-06T12:47:37.273Z,27.70
2022-09-06T12:50:25.974Z,27.70
2022-09-06T12:53:25.017Z,27.80
2022-09-06T12:56:12.682Z,27.90
2022-09-06T12:59:25.469Z,27.90
2022-09-06T13:02:16.607Z,28.00
2022-09-06T13:05:09.248Z,28.10
2022-09-06T13:07:58.304Z,28.20
2022-09-06T13:10:47.113Z,28.30
2022-09-06T13:13:32.623Z,28.40
2022-09-06T13:16:21.188Z,28.50
2022-09-06T13:19:17.805Z,28.50
2022-09-06T13:22:07.487Z,28.50
2022-09-06T13:24:56.511Z,28.50
2022-09-06T13:27:50.004Z,28.50
2022-09-06T13:30:38.873Z,28.60
2022-09-06T13:33:26.097Z,28.60
2022-09-06T13:36:11.798Z,28.70
2022-09-06T13:38:57.937Z,28.70
2022-09-06T13:41:44.433Z,28.60
2022-09-06T13:44:32.081Z,28.50
2022-09-06T13:47:17.869Z,28.50
2022-09-06T13:50:03.529Z,28.50
2022-09-06T13:52:49.049Z,28.50
2022-09-06T13:55:34.913Z,28.40
2022-09-06T13:58:21.716Z,28.50
2022-09-06T14:01:10.470Z,28.40
2022-09-06T14:03:55.920Z,28.40
2022-09-06T14:06:42.174Z,28.50
2022-09-06T14:09:27.621Z,28.50
2022-09-06T14:12:13.132Z,28.50
2022-09-06T14:14:58.708Z,28.60
2022-09-06T14:17:44.299Z,28.70
2022-09-06T14:20:30.720Z,28.80
2022-09-06T14:23:17.013Z,28.90
2022-09-06T14:26:04.685Z,29.00
2022-09-06T14:28:50.879Z,28.90
2022-09-06T14:31:36.515Z,28.80
2022-09-06T14:34:22.429Z,28.70
2022-09-06T14:37:12.836Z,28.50
2022-09-06T14:39:59.135Z,28.40
2022-09-06T14:42:47.600Z,28.30
2022-09-06T14:45:36.449Z,28.30
2022-09-06T14:48:28.413Z,28.40
2022-09-06T14:51:24.104Z,28.60
2022-09-06T14:54:11.753Z,28.70
2022-09-06T14:56:57.713Z,28.80
2022-09-06T14:59:43.588Z,28.90
2022-09-06T15:02:29.402Z,28.90
2022-09-06T15:05:15.105Z,29.00
2022-09-06T15:08:00.720Z,29.00
2022-09-06T15:10:54.234Z,28.90
2022-09-06T15:13:40.554Z,29.00
2022-09-06T15:16:26.979Z,29.00
2022-09-06T15:19:13.654Z,29.10
2022-09-06T15:21:59.470Z,29.40
2022-09-06T15:24:45.151Z,29.50
2022-09-06T15:27:31.753Z,29.60
2022-09-06T15:30:17.521Z,29.70
2022-09-06T15:33:02.983Z,29.70
2022-09-06T15:35:55.117Z,29.80
2022-09-06T15:38:52.283Z,29.60
2022-09-06T15:41:40.459Z,29.30
2022-09-06T15:44:26.516Z,29.10
2022-09-06T15:47:12.076Z,28.90
2022-09-06T15:49:57.731Z,28.80
2022-09-06T15:52:43.575Z,28.70
2022-09-06T15:55:49.443Z,28.70
2022-09-06T15:58:35.705Z,28.70
2022-09-06T16:01:23.701Z,28.70
2022-09-06T16:04:09.544Z,28.70
2022-09-06T16:06:56.782Z,28.90
2022-09-06T16:09:42.893Z,29.00
2022-09-06T16:12:28.620Z,29.20
2022-09-06T16:15:14.780Z,29.20
2022-09-06T16:18:05.149Z,29.20
2022-09-06T16:20:50.909Z,29.20
2022-09-06T16:23:37.378Z,29.20
2022-09-06T16:26:24.862Z,29.20
2022-09-06T16:29:12.582Z,29.20
2022-09-06T16:32:00.009Z,29.10
2022-09-06T16:34:45.991Z,29.10
2022-09-06T16:37:33.039Z,29.10
2022-09-06T16:40:18.725Z,29.00
2022-09-06T16:43:04.432Z,28.90
2022-09-06T16:46:01.115Z,29.00
2022-09-06T16:48:59.534Z,28.90
2022-09-06T16:51:46.363Z,28.80
2022-09-06T16:54:31.829Z,28.70
2022-09-06T16:57:17.500Z,28.70
2022-09-06T17:00:04.066Z,28.70
2022-09-06T17:02:50.140Z,28.70
2022-09-06T17:05:35.813Z,28.60
2022-09-06T17:08:21.348Z,28.50
2022-09-06T17:11:14.770Z,28.40
2022-09-06T17:14:01.165Z,28.30
2022-09-06T17:17:05.092Z,28.30
2022-09-06T17:19:50.983Z,28.20
2022-09-06T17:22:36.736Z,28.20
2022-09-06T17:25:22.150Z,28.10
2022-09-06T17:28:07.668Z,28.20
2022-09-06T17:30:53.716Z,28.40
2022-09-06T17:33:39.692Z,28.40
2022-09-06T17:36:30.433Z,28.50
2022-09-06T17:39:18.705Z,29.10
2022-09-06T17:42:04.638Z,28.60
2022-09-06T17:44:50.249Z,28.60
2022-09-06T17:47:36.145Z,28.50
2022-09-06T17:50:21.510Z,28.60
2022-09-06T17:53:07.193Z,28.60
2022-09-06T17:55:52.969Z,28.60
2022-09-06T17:58:40.895Z,28.50
2022-09-06T18:01:29.638Z,28.60
2022-09-06T18:04:16.040Z,28.50
2022-09-06T18:07:01.469Z,28.50
2022-09-06T18:09:47.537Z,28.50
2022-09-06T18:12:34.370Z,28.50
2022-09-06T18:15:20.247Z,28.50
2022-09-06T18:18:06.472Z,28.50
2022-09-06T18:20:51.986Z,28.50
2022-09-06T18:23:37.675Z,28.50
2022-09-06T18:26:24.026Z,28.40
2022-09-06T18:29:16.546Z,28.40
2022-09-06T18:32:02.983Z,28.40
2022-09-06T18:34:48.473Z,28.40
2022-09-06T18:37:37.191Z,28.40
2022-09-06T18:40:22.865Z,28.40
2022-09-06T18:43:08.400Z,28.40
2022-09-06T18:46:00.123Z,28.40
2022-09-06T18:48:47.420Z,28.30
2022-09-06T18:51:34.274Z,28.30
2022-09-06T18:54:20.698Z,28.30
2022-09-06T18:57:06.768Z,28.30
2022-09-06T18:59:52.389Z,28.30
2022-09-06T19:02:37.991Z,28.30
2022-09-06T19:05:23.511Z,28.40
2022-09-06T19:08:10.116Z,28.30
2022-09-06T19:11:01.137Z,28.10
2022-09-06T19:13:50.725Z,28.00
2022-09-06T19:16:36.345Z,27.80
2022-09-06T19:19:23.170Z,27.70
2022-09-06T19:22:08.873Z,27.60
2022-09-06T19:24:54.677Z,27.50
2022-09-06T19:27:40.161Z,27.40
2022-09-06T19:30:25.877Z,27.30
2022-09-06T19:33:12.132Z,27.20
2022-09-06T19:36:10.861Z,27.10
2022-09-06T19:39:03.408Z,27.10
2022-09-06T19:41:50.701Z,27.10
2022-09-06T19:44:36.414Z,27.00
2022-09-06T19:47:22.258Z,27.00
2022-09-06T19:50:08.994Z,26.90
2022-09-06T19:52:55.816Z,26.90
2022-09-06T19:55:41.788Z,26.80
2022-09-06T19:58:27.629Z,26.80
2022-09-06T20:01:17.962Z,26.70
2022-09-06T20:04:07.072Z,26.60
2022-09-06T20:06:52.665Z,26.60
2022-09-06T20:09:38.158Z,26.50
2022-09-06T20:12:24.325Z,26.50
2022-09-06T20:15:10.905Z,26.40
2022-09-06T20:17:56.590Z,26.40
2022-09-06T20:20:43.365Z,26.30
2022-09-06T20:23:30.408Z,26.30
2022-09-06T20:26:16.302Z,26.30
2022-09-06T20:29:04.585Z,26.20
2022-09-06T20:31:50.466Z,26.20
2022-09-06T20:34:36.181Z,26.20
2022-09-06T20:37:22.777Z,26.20
2022-09-06T20:40:09.345Z,26.20
2022-09-06T20:42:55.009Z,26.20
2022-09-06T20:45:40.690Z,26.20
2022-09-06T20:48:27.018Z,26.20
2022-09-06T20:51:15.912Z,26.10
2022-09-06T20:54:02.649Z,26.10
2022-09-06T20:56:48.273Z,26.10
2022-09-06T20:59:33.976Z,25.90
2022-09-06T21:02:19.868Z,25.80
2022-09-06T21:05:05.514Z,25.80
2022-09-06T21:07:51.698Z,25.80
2022-09-06T21:10:37.732Z,25.70
2022-09-06T21:13:23.688Z,25.60
2022-09-06T21:16:09.472Z,25.60
2022-09-06T21:19:00.915Z,25.50
2022-09-06T21:21:46.632Z,25.50
2022-09-06T21:24:33.169Z,25.50
2022-09-06T21:27:18.675Z,25.50
2022-09-06T21:30:04.697Z,25.50
2022-09-06T21:32:53.733Z,25.40
2022-09-06T21:35:39.510Z,25.40
2022-09-06T21:38:25.009Z,25.30
2022-09-06T21:41:11.956Z,25.30
2022-09-06T21:44:02.272Z,25.30
2022-09-06T21:46:47.737Z,25.20
2022-09-06T21:49:33.352Z,25.20
2022-09-06T21:52:19.015Z,25.10
2022-09-06T21:55:06.092Z,25.10
2022-09-06T21:57:51.641Z,25.10
2022-09-06T22:00:37.585Z,25.00
2022-09-06T22:03:22.985Z,25.00
2022-09-06T22:06:13.934Z,25.00
2022-09-06T22:09:01.420Z,25.00
2022-09-06T22:11:46.906Z,24.90
2022-09-06T22:14:32.425Z,24.90
2022-09-06T22:17:18.034Z,24.90
2022-09-06T22:20:08.506Z,24.80
2022-09-06T22:22:54.329Z,24.80
2022-09-06T22:25:40.975Z,24.90
2022-09-06T22:28:26.927Z,24.80
2022-09-06T22:31:12.788Z,24.80
2022-09-06T22:33:58.914Z,24.70
2022-09-06T22:36:44.643Z,24.70
2022-09-06T22:39:31.039Z,24.70
2022-09-06T22:42:16.905Z,24.60
2022-09-06T22:45:03.093Z,24.60
2022-09-06T22:47:50.997Z,24.60
2022-09-06T22:50:36.520Z,24.50
2022-09-06T22:53:22.184Z,24.50
2022-09-06T22:56:07.880Z,24.50
2022-09-06T22:58:53.297Z,24.50
2022-09-06T23:01:39.341Z,24.50
2022-09-06T23:04:25.004Z,24.50
2022-09-06T23:07:10.558Z,24.50
2022-09-06T23:09:56.101Z,24.40
2022-09-06T23:12:41.642Z,24.40
2022-09-06T23:15:27.108Z,24.40
2022-09-06T23:18:13.710Z,24.40
2022-09-06T23:21:04.450Z,24.30
2022-09-06T23:23:51.710Z,24.20
2022-09-06T23:26:38.058Z,24.10
2022-09-06T23:29:23.912Z,24.10
2022-09-06T23:32:10.211Z,24.20
2022-09-06T23:34:55.974Z,24.20
2022-09-06T23:37:41.888Z,24.20
2022-09-06T23:40:27.488Z,24.20
2022-09-06T23:43:13.125Z,24.10
2022-09-06T23:45:58.994Z,24.00
2022-09-06T23:48:44.933Z,24.00
2022-09-06T23:51:30.370Z,23.90
2022-09-06T23:54:16.076Z,24.00
2022-09-06T23:57:01.750Z,24.00
2022-09-06T23:59:47.484Z,24.00
